Αρχική σελίδα
METAR-TAF:

METAR-TAF

Αεροδρόμια :

Μαυρίκιος, Μαυρίκιος

γεωγραφικό πλάτος: 20-26S, γεωγραφικό μήκος: 057-40E, υψόμετρο: 55 μ

Παρών καιρός

Η αναφορά έγινε 12 λεπτά πριν, στις 12:00 UTC
Άνεμος 13 kt από Α/NA
Θερμοκρασία 27°C
Υγρασία 62%
Πίεση 1018 hPa
Ορατότητα 10 χλμ και άνω
Διάσπαρτα νέφη σε ύψος 1800 πόδια
Διάσπαρτα νέφη σε ύψος 5000 πόδια

METAR: FIMP 161200Z 12013KT 9999 SCT018 SCT050 27/19 Q1018

Χρόνος: 16:12 (12:12 UTC)

Πρόγνωση Καιρού

Η αναφορά έγινε 32 λεπτά πριν, στις 11:40 UTC
Η πρόγνωση ισχύει από τις 16 στις 12 UTC έως τις 17 στις 18 UTC
Άνεμος 13 kt από Α/NA με ριπές μέχρι 25 kt
Ορατότητα 10 χλμ και άνω
Διάσπαρτα νέφη σε ύψος 1800 πόδια
Πιθανότητα 30% :
Προσωρινά
από 17 στις 10 UTC έως τις 17 στις 18 UTC
Ορατότητα: 7000 μ
Αρκετά νέφη σε ύψος 1500 πόδια
Ασθενείς όμβροι

TAF: FIMP 161140Z 1612/1718 12013G25KT 9999 SCT018 PROB30 TEMPO 1710/1718 7000 -SHRA BKN015

Μετεωρολογικές αναφορές και προγνώσεις για περισσότερα από 4000 αεροδρόμια (δελτία METAR και TAF).

Οι διαθέσιμοι σταθμοί απεικονίζονται στο χάρτη με κίτρινες και κόκκινες κουκκίδες.

Μετακινήστε το ποντίκι πάνω από τις κουκκίδες για να δείτε το όνομα του σταθμού.

Στη συνέχεια, κάντε κλικ για να δείτε τις μετεωρολογικές αναφορές και τις προγνώσεις καιρού.

Για να αλλάξετε το χάρτη: κάντε κλικ στα πράσινα κουμπιά με τον μαύρο σταυρό για να ζουμάρετε, στο πράσινο κουμπί με την παύλα για να αφαιρέσετε το ζουμ ή στα πράσινα βέλη για να αντιπαραβάλλετε χάρτες.


METAR-TAF: